DLH9PK EGLL-EDDH
Flight info
| Callsign | DLH9PK |
|---|---|
| Flight time | 1h 12m |
| Altitude | 35000 |
| Route | BPK Q295 SOMVA DCT MAVAS DCT VALAM DCT GASTU DCT OSTOR T904 RIBSO RIBSO3P |
| Aircraft | A20N/M-SDE2E3FGHIRWXY/LB1 |
Departure
| Time | 2026-04-23 17:34 |
|---|---|
| Airport | London Heathrow Airport (EGLL) |
Arrival
| Time | 2026-04-23 18:47 |
|---|---|
| Airport | Hamburg Helmut Schmidt Airport (EDDH) |
| Time | Latitude | Longitude | Altitude | Speed | Heading |
|---|---|---|---|---|---|
| 2026-04-23 17:12 | 51.46937 | -0.44392 | 94 ft | 0 kts | 90° |
| 2026-04-23 17:21 | 51.46937 | -0.44421 | 94 ft | 2 kts | 90° |
| 2026-04-23 17:22 | 51.46937 | -0.44437 | 95 ft | 2 kts | 90° |
| 2026-04-23 17:22 | 51.46937 | -0.44485 | 96 ft | 2 kts | 90° |
| 2026-04-23 17:23 | 51.46950 | -0.44535 | 96 ft | 2 kts | 137° |
| 2026-04-23 17:23 | 51.46958 | -0.44545 | 96 ft | 2 kts | 149° |
| 2026-04-23 17:23 | 51.46984 | -0.44557 | 97 ft | 1 kts | 183° |
| 2026-04-23 17:24 | 51.46987 | -0.44557 | 97 ft | 0 kts | 181° |
| 2026-04-23 17:27 | 51.46899 | -0.44557 | 95 ft | 11 kts | 180° |
| 2026-04-23 17:27 | 51.46838 | -0.44556 | 94 ft | 12 kts | 179° |
| 2026-04-23 17:27 | 51.46731 | -0.44556 | 90 ft | 12 kts | 180° |
| 2026-04-23 17:27 | 51.46664 | -0.44624 | 90 ft | 10 kts | 262° |
| 2026-04-23 17:28 | 51.46664 | -0.44708 | 91 ft | 12 kts | 272° |
| 2026-04-23 17:28 | 51.46666 | -0.44869 | 91 ft | 15 kts | 269° |
| 2026-04-23 17:28 | 51.46662 | -0.45054 | 94 ft | 17 kts | 269° |
| 2026-04-23 17:28 | 51.46663 | -0.45257 | 92 ft | 11 kts | 270° |
| 2026-04-23 17:29 | 51.46662 | -0.45414 | 89 ft | 17 kts | 270° |
| 2026-04-23 17:29 | 51.46661 | -0.45598 | 85 ft | 10 kts | 270° |
| 2026-04-23 17:29 | 51.46659 | -0.46026 | 84 ft | 21 kts | 270° |
| 2026-04-23 17:30 | 51.46659 | -0.46160 | 84 ft | 16 kts | 271° |
| 2026-04-23 17:30 | 51.46657 | -0.46653 | 78 ft | 27 kts | 268° |
| 2026-04-23 17:30 | 51.46656 | -0.47068 | 77 ft | 25 kts | 270° |
| 2026-04-23 17:31 | 51.46655 | -0.47263 | 78 ft | 27 kts | 270° |
| 2026-04-23 17:31 | 51.46655 | -0.47575 | 81 ft | 28 kts | 270° |
| 2026-04-23 17:31 | 51.46653 | -0.47907 | 81 ft | 25 kts | 269° |
| 2026-04-23 17:31 | 51.46652 | -0.48101 | 81 ft | 5 kts | 270° |
| 2026-04-23 17:32 | 51.46652 | -0.48137 | 81 ft | 4 kts | 270° |
| 2026-04-23 17:32 | 51.46599 | -0.48215 | 78 ft | 10 kts | 182° |
| 2026-04-23 17:32 | 51.46541 | -0.48216 | 77 ft | 14 kts | 179° |
| 2026-04-23 17:32 | 51.46478 | -0.48120 | 78 ft | 14 kts | 92° |
| 2026-04-23 17:33 | 51.46478 | -0.48079 | 79 ft | 0 kts | 90° |
| 2026-04-23 17:33 | 51.46478 | -0.48078 | 79 ft | 0 kts | 90° |
| 2026-04-23 17:33 | 51.46479 | -0.48025 | 80 ft | 17 kts | 90° |
| 2026-04-23 17:33 | 51.46478 | -0.46964 | 78 ft | 121 kts | 90° |
| 2026-04-23 17:34 | 51.46510 | -0.45380 | 464 ft | 148 kts | 89° |
| 2026-04-23 17:34 | 51.46527 | -0.44294 | 939 ft | 149 kts | 90° |
| 2026-04-23 17:34 | 51.46869 | -0.41041 | 2375 ft | 164 kts | 60° |
| 2026-04-23 17:35 | 51.47888 | -0.39009 | 3107 ft | 187 kts | 54° |
| 2026-04-23 17:35 | 51.49405 | -0.36157 | 3897 ft | 223 kts | 54° |
| 2026-04-23 17:35 | 51.50810 | -0.33496 | 4682 ft | 249 kts | 53° |
| 2026-04-23 17:36 | 51.51939 | -0.31309 | 5377 ft | 258 kts | 58° |
| 2026-04-23 17:36 | 51.52733 | -0.28758 | 5832 ft | 258 kts | 73° |
| 2026-04-23 17:36 | 51.53280 | -0.26008 | 5989 ft | 259 kts | 76° |
| 2026-04-23 17:36 | 51.53801 | -0.23251 | 5991 ft | 258 kts | 76° |
| 2026-04-23 17:37 | 51.54166 | -0.21418 | 5992 ft | 259 kts | 73° |
| 2026-04-23 17:37 | 51.55119 | -0.18956 | 5979 ft | 266 kts | 46° |
| 2026-04-23 17:37 | 51.59315 | -0.17185 | 5999 ft | 279 kts | 7° |
| 2026-04-23 17:38 | 51.61204 | -0.16718 | 5996 ft | 276 kts | 15° |
| 2026-04-23 17:38 | 51.63079 | -0.16037 | 5995 ft | 275 kts | 18° |
| 2026-04-23 17:38 | 51.64923 | -0.15268 | 5995 ft | 275 kts | 19° |
| 2026-04-23 17:38 | 51.66768 | -0.14447 | 5995 ft | 275 kts | 19° |
| 2026-04-23 17:39 | 51.67997 | -0.13886 | 5995 ft | 275 kts | 20° |
| 2026-04-23 17:39 | 51.69820 | -0.13047 | 5995 ft | 275 kts | 20° |
| 2026-04-23 17:39 | 51.72275 | -0.11913 | 5995 ft | 275 kts | 20° |
| 2026-04-23 17:39 | 51.73957 | -0.10641 | 5979 ft | 267 kts | 44° |
| 2026-04-23 17:40 | 51.75070 | -0.08302 | 5989 ft | 260 kts | 71° |
| 2026-04-23 17:40 | 51.75382 | -0.06469 | 5998 ft | 257 kts | 83° |
| 2026-04-23 17:40 | 51.75695 | -0.02608 | 6173 ft | 264 kts | 85° |
| 2026-04-23 17:40 | 51.75840 | -0.00661 | 6700 ft | 269 kts | 85° |
| 2026-04-23 17:41 | 51.76065 | 0.02303 | 7825 ft | 267 kts | 84° |
| 2026-04-23 17:41 | 51.76544 | 0.08266 | 9597 ft | 277 kts | 82° |
| 2026-04-23 17:41 | 51.76886 | 0.12408 | 10724 ft | 284 kts | 82° |
| 2026-04-23 17:42 | 51.77341 | 0.17937 | 11507 ft | 314 kts | 82° |
| 2026-04-23 17:42 | 51.77635 | 0.21526 | 11936 ft | 331 kts | 82° |
| 2026-04-23 17:42 | 51.78038 | 0.26477 | 12878 ft | 340 kts | 82° |
| 2026-04-23 17:43 | 51.78347 | 0.30281 | 13692 ft | 344 kts | 82° |
| 2026-04-23 17:43 | 51.78657 | 0.34136 | 14459 ft | 348 kts | 82° |
| 2026-04-23 17:43 | 51.78970 | 0.38028 | 15213 ft | 352 kts | 82° |
| 2026-04-23 17:43 | 51.79281 | 0.41929 | 15934 ft | 356 kts | 82° |
| 2026-04-23 17:44 | 51.79597 | 0.45909 | 16637 ft | 360 kts | 82° |
| 2026-04-23 17:44 | 51.79915 | 0.49924 | 17308 ft | 364 kts | 82° |
| 2026-04-23 17:44 | 51.80553 | 0.58049 | 18616 ft | 371 kts | 82° |
| 2026-04-23 17:45 | 51.80951 | 0.62214 | 19228 ft | 376 kts | 78° |
| 2026-04-23 17:45 | 51.82455 | 0.70369 | 20406 ft | 385 kts | 69° |
| 2026-04-23 17:45 | 51.83482 | 0.74406 | 21004 ft | 389 kts | 69° |
| 2026-04-23 17:46 | 51.85599 | 0.82515 | 22106 ft | 398 kts | 69° |
| 2026-04-23 17:46 | 51.86671 | 0.86644 | 22660 ft | 402 kts | 69° |
| 2026-04-23 17:46 | 51.87392 | 0.89434 | 23023 ft | 405 kts | 69° |
| 2026-04-23 17:47 | 51.88835 | 0.95036 | 23724 ft | 410 kts | 69° |
| 2026-04-23 17:47 | 51.89565 | 0.97879 | 24066 ft | 413 kts | 70° |
| 2026-04-23 17:47 | 51.92165 | 1.08027 | 25284 ft | 420 kts | 70° |
| 2026-04-23 17:48 | 51.93274 | 1.12377 | 25791 ft | 423 kts | 70° |
| 2026-04-23 17:48 | 51.94395 | 1.16777 | 26285 ft | 425 kts | 71° |
| 2026-04-23 17:48 | 51.95146 | 1.19732 | 26606 ft | 427 kts | 71° |
| 2026-04-23 17:48 | 51.96649 | 1.25653 | 27230 ft | 430 kts | 71° |
| 2026-04-23 17:49 | 51.97418 | 1.28690 | 27543 ft | 432 kts | 71° |
| 2026-04-23 17:49 | 51.98555 | 1.33190 | 27977 ft | 434 kts | 71° |
| 2026-04-23 17:49 | 52.00071 | 1.39202 | 28522 ft | 437 kts | 72° |
| 2026-04-23 17:49 | 52.01224 | 1.43779 | 28893 ft | 440 kts | 72° |
| 2026-04-23 17:50 | 52.02378 | 1.48375 | 29246 ft | 442 kts | 72° |
| 2026-04-23 17:50 | 52.04693 | 1.57634 | 29937 ft | 445 kts | 72° |
| 2026-04-23 17:50 | 52.05476 | 1.60771 | 30160 ft | 446 kts | 72° |
| 2026-04-23 17:51 | 52.06623 | 1.65382 | 30453 ft | 447 kts | 73° |
| 2026-04-23 17:51 | 52.08184 | 1.71667 | 30950 ft | 447 kts | 73° |
| 2026-04-23 17:51 | 52.10481 | 1.80936 | 31699 ft | 444 kts | 73° |
| 2026-04-23 17:52 | 52.11628 | 1.85580 | 32042 ft | 443 kts | 73° |
| 2026-04-23 17:52 | 52.13916 | 1.94878 | 32670 ft | 442 kts | 74° |
| 2026-04-23 17:52 | 52.15058 | 1.99537 | 32984 ft | 442 kts | 74° |
| 2026-04-23 17:53 | 52.16938 | 2.07221 | 33492 ft | 441 kts | 74° |
| 2026-04-23 17:53 | 52.18437 | 2.13372 | 33840 ft | 441 kts | 74° |
| 2026-04-23 17:53 | 52.19574 | 2.18045 | 34065 ft | 442 kts | 74° |
| 2026-04-23 17:54 | 52.20332 | 2.21171 | 34205 ft | 443 kts | 73° |
| 2026-04-23 17:54 | 52.21547 | 2.25793 | 34400 ft | 446 kts | 71° |
| 2026-04-23 17:54 | 52.24126 | 2.34943 | 34792 ft | 449 kts | 70° |
| 2026-04-23 17:55 | 52.26740 | 2.44236 | 35138 ft | 451 kts | 70° |
| 2026-04-23 17:55 | 52.28039 | 2.48897 | 35311 ft | 452 kts | 70° |
| 2026-04-23 17:55 | 52.29775 | 2.55156 | 35424 ft | 454 kts | 70° |
| 2026-04-23 17:56 | 52.30631 | 2.58253 | 35428 ft | 454 kts | 70° |
| 2026-04-23 17:56 | 52.34941 | 2.73925 | 35432 ft | 454 kts | 70° |
| 2026-04-23 17:57 | 52.37075 | 2.81729 | 35432 ft | 454 kts | 70° |
| 2026-04-23 17:58 | 52.40917 | 2.95853 | 35432 ft | 454 kts | 70° |
| 2026-04-23 17:58 | 52.43470 | 3.05288 | 35432 ft | 454 kts | 70° |
| 2026-04-23 17:59 | 52.46007 | 3.14701 | 35432 ft | 453 kts | 70° |
| 2026-04-23 17:59 | 52.48546 | 3.24161 | 35432 ft | 453 kts | 70° |
| 2026-04-23 18:00 | 52.51487 | 3.35168 | 35432 ft | 453 kts | 70° |
| 2026-04-23 18:00 | 52.53997 | 3.44603 | 35432 ft | 453 kts | 70° |
| 2026-04-23 18:01 | 52.56502 | 3.54067 | 35432 ft | 453 kts | 70° |
| 2026-04-23 18:01 | 52.58582 | 3.61947 | 35432 ft | 452 kts | 70° |
| 2026-04-23 18:02 | 52.61073 | 3.71417 | 35433 ft | 452 kts | 71° |
| 2026-04-23 18:02 | 52.63561 | 3.80918 | 35432 ft | 452 kts | 71° |
| 2026-04-23 18:03 | 52.66024 | 3.90370 | 35432 ft | 452 kts | 71° |
| 2026-04-23 18:03 | 52.68894 | 4.01431 | 35428 ft | 452 kts | 71° |
| 2026-04-23 18:04 | 52.70953 | 4.09410 | 35423 ft | 452 kts | 71° |
| 2026-04-23 18:04 | 52.73391 | 4.18878 | 35420 ft | 452 kts | 71° |
| 2026-04-23 18:05 | 52.75844 | 4.28443 | 35420 ft | 452 kts | 71° |
| 2026-04-23 18:05 | 52.78274 | 4.37967 | 35423 ft | 452 kts | 71° |
| 2026-04-23 18:06 | 52.80699 | 4.47507 | 35426 ft | 453 kts | 71° |
| 2026-04-23 18:06 | 52.83121 | 4.57078 | 35429 ft | 453 kts | 70° |
| 2026-04-23 18:07 | 52.85551 | 4.66722 | 35432 ft | 453 kts | 71° |
| 2026-04-23 18:07 | 52.87949 | 4.76276 | 35432 ft | 453 kts | 71° |
| 2026-04-23 18:08 | 52.90360 | 4.85929 | 35432 ft | 453 kts | 71° |
| 2026-04-23 18:08 | 52.92749 | 4.95532 | 35428 ft | 453 kts | 71° |
| 2026-04-23 18:09 | 52.95130 | 5.05152 | 35421 ft | 453 kts | 71° |
| 2026-04-23 18:09 | 52.97517 | 5.14830 | 35412 ft | 453 kts | 71° |
| 2026-04-23 18:10 | 52.99882 | 5.24467 | 35407 ft | 453 kts | 71° |
| 2026-04-23 18:10 | 53.02255 | 5.34173 | 35406 ft | 454 kts | 71° |
| 2026-04-23 18:11 | 53.04604 | 5.43833 | 35405 ft | 454 kts | 71° |
| 2026-04-23 18:11 | 53.06962 | 5.53564 | 35405 ft | 454 kts | 71° |
| 2026-04-23 18:12 | 53.09295 | 5.63238 | 35405 ft | 454 kts | 71° |
| 2026-04-23 18:12 | 53.11648 | 5.73039 | 35405 ft | 454 kts | 71° |
| 2026-04-23 18:13 | 53.13973 | 5.82770 | 35405 ft | 454 kts | 71° |
| 2026-04-23 18:13 | 53.16299 | 5.92541 | 35400 ft | 454 kts | 71° |
| 2026-04-23 18:14 | 53.18617 | 6.02328 | 35392 ft | 454 kts | 71° |
| 2026-04-23 18:14 | 53.20907 | 6.12056 | 35384 ft | 454 kts | 71° |
| 2026-04-23 18:15 | 53.23205 | 6.21835 | 35381 ft | 454 kts | 71° |
| 2026-04-23 18:15 | 53.25495 | 6.31632 | 35380 ft | 454 kts | 71° |
| 2026-04-23 18:16 | 53.27770 | 6.41414 | 35380 ft | 454 kts | 71° |
| 2026-04-23 18:16 | 53.30057 | 6.51287 | 35380 ft | 454 kts | 71° |
| 2026-04-23 18:17 | 53.33423 | 6.66008 | 35383 ft | 453 kts | 73° |
| 2026-04-23 18:17 | 53.35352 | 6.75972 | 35386 ft | 452 kts | 75° |
| 2026-04-23 18:18 | 53.37223 | 6.86000 | 35389 ft | 451 kts | 75° |
| 2026-04-23 18:18 | 53.39107 | 6.96032 | 35300 ft | 452 kts | 74° |
| 2026-04-23 18:19 | 53.40036 | 7.00977 | 35051 ft | 450 kts | 74° |
| 2026-04-23 18:19 | 53.40980 | 7.06000 | 34798 ft | 447 kts | 74° |
| 2026-04-23 18:19 | 53.41898 | 7.10896 | 34551 ft | 445 kts | 74° |
| 2026-04-23 18:19 | 53.42822 | 7.15831 | 34300 ft | 442 kts | 74° |
| 2026-04-23 18:20 | 53.43738 | 7.20736 | 34050 ft | 441 kts | 74° |
| 2026-04-23 18:20 | 53.44654 | 7.25657 | 33799 ft | 441 kts | 74° |
| 2026-04-23 18:20 | 53.45552 | 7.30496 | 33553 ft | 441 kts | 74° |
| 2026-04-23 18:20 | 53.46466 | 7.35433 | 33302 ft | 442 kts | 73° |
| 2026-04-23 18:21 | 53.47375 | 7.40360 | 33052 ft | 442 kts | 73° |
| 2026-04-23 18:21 | 53.48279 | 7.45265 | 32803 ft | 443 kts | 73° |
| 2026-04-23 18:21 | 53.49186 | 7.50203 | 32554 ft | 444 kts | 73° |
| 2026-04-23 18:21 | 53.50086 | 7.55110 | 32306 ft | 444 kts | 73° |
| 2026-04-23 18:22 | 53.50999 | 7.60100 | 32054 ft | 444 kts | 73° |
| 2026-04-23 18:22 | 53.51903 | 7.65060 | 31677 ft | 445 kts | 74° |
| 2026-04-23 18:22 | 53.52805 | 7.70022 | 31053 ft | 446 kts | 74° |
| 2026-04-23 18:22 | 53.53708 | 7.75005 | 30250 ft | 448 kts | 73° |
| 2026-04-23 18:23 | 53.54597 | 7.79928 | 29621 ft | 444 kts | 73° |
| 2026-04-23 18:23 | 53.56370 | 7.89762 | 28563 ft | 435 kts | 73° |
| 2026-04-23 18:24 | 53.58097 | 7.99398 | 27446 ft | 429 kts | 73° |
| 2026-04-23 18:24 | 53.58953 | 8.04197 | 26881 ft | 426 kts | 73° |
| 2026-04-23 18:24 | 53.59792 | 8.08917 | 26331 ft | 423 kts | 73° |
| 2026-04-23 18:25 | 53.61464 | 8.18341 | 25217 ft | 417 kts | 73° |
| 2026-04-23 18:25 | 53.62286 | 8.22992 | 24672 ft | 414 kts | 73° |
| 2026-04-23 18:25 | 53.63096 | 8.27587 | 24123 ft | 411 kts | 73° |
| 2026-04-23 18:25 | 53.63903 | 8.32179 | 23578 ft | 409 kts | 73° |
| 2026-04-23 18:26 | 53.64697 | 8.36715 | 23047 ft | 406 kts | 73° |
| 2026-04-23 18:26 | 53.65491 | 8.41261 | 22529 ft | 402 kts | 72° |
| 2026-04-23 18:26 | 53.66280 | 8.45792 | 22009 ft | 399 kts | 72° |
| 2026-04-23 18:26 | 53.67059 | 8.50263 | 21484 ft | 396 kts | 72° |
| 2026-04-23 18:27 | 53.67828 | 8.54698 | 20967 ft | 393 kts | 72° |
| 2026-04-23 18:27 | 53.68585 | 8.59076 | 20449 ft | 390 kts | 72° |
| 2026-04-23 18:27 | 53.69335 | 8.63422 | 19937 ft | 387 kts | 72° |
| 2026-04-23 18:27 | 53.70081 | 8.67761 | 19424 ft | 384 kts | 73° |
| 2026-04-23 18:28 | 53.70822 | 8.72071 | 18905 ft | 381 kts | 73° |
| 2026-04-23 18:28 | 53.71558 | 8.76361 | 18391 ft | 378 kts | 72° |
| 2026-04-23 18:28 | 53.72276 | 8.80569 | 17869 ft | 375 kts | 72° |
| 2026-04-23 18:28 | 53.72995 | 8.84781 | 17198 ft | 376 kts | 72° |
| 2026-04-23 18:29 | 53.73716 | 8.89019 | 16521 ft | 376 kts | 72° |
| 2026-04-23 18:29 | 53.74431 | 8.93228 | 15849 ft | 376 kts | 72° |
| 2026-04-23 18:29 | 53.75147 | 8.97453 | 15173 ft | 376 kts | 71° |
| 2026-04-23 18:29 | 53.75865 | 9.01700 | 14500 ft | 375 kts | 71° |
| 2026-04-23 18:30 | 53.76575 | 9.05918 | 13817 ft | 374 kts | 71° |
| 2026-04-23 18:30 | 53.77285 | 9.10146 | 13140 ft | 373 kts | 71° |
| 2026-04-23 18:30 | 53.77987 | 9.14326 | 12473 ft | 367 kts | 70° |
| 2026-04-23 18:30 | 53.78655 | 9.18346 | 11801 ft | 346 kts | 70° |
| 2026-04-23 18:31 | 53.79297 | 9.22195 | 11126 ft | 339 kts | 70° |
| 2026-04-23 18:31 | 53.79927 | 9.25995 | 10544 ft | 326 kts | 69° |
| 2026-04-23 18:31 | 53.80510 | 9.29528 | 10278 ft | 299 kts | 69° |
| 2026-04-23 18:31 | 53.81049 | 9.32813 | 10269 ft | 287 kts | 69° |
| 2026-04-23 18:32 | 53.81509 | 9.36068 | 10268 ft | 287 kts | 72° |
| 2026-04-23 18:32 | 53.81924 | 9.39399 | 10268 ft | 287 kts | 72° |
| 2026-04-23 18:32 | 53.82331 | 9.42734 | 10256 ft | 288 kts | 72° |
| 2026-04-23 18:32 | 53.82728 | 9.46012 | 10262 ft | 288 kts | 72° |
| 2026-04-23 18:33 | 53.83131 | 9.49349 | 10265 ft | 288 kts | 72° |
| 2026-04-23 18:33 | 53.83529 | 9.52651 | 10220 ft | 288 kts | 72° |
| 2026-04-23 18:33 | 53.83927 | 9.55960 | 9900 ft | 287 kts | 72° |
| 2026-04-23 18:33 | 53.84322 | 9.59262 | 9572 ft | 285 kts | 72° |
| 2026-04-23 18:34 | 53.84716 | 9.62539 | 9247 ft | 284 kts | 72° |
| 2026-04-23 18:34 | 53.85099 | 9.65763 | 8924 ft | 271 kts | 72° |
| 2026-04-23 18:34 | 53.85457 | 9.68805 | 8594 ft | 256 kts | 72° |
| 2026-04-23 18:34 | 53.85798 | 9.71692 | 8268 ft | 248 kts | 72° |
| 2026-04-23 18:35 | 53.86144 | 9.74569 | 7932 ft | 249 kts | 72° |
| 2026-04-23 18:35 | 53.86485 | 9.77431 | 7601 ft | 248 kts | 73° |
| 2026-04-23 18:35 | 53.86651 | 9.80349 | 7316 ft | 250 kts | 84° |
| 2026-04-23 18:35 | 53.86539 | 9.83305 | 7279 ft | 254 kts | 90° |
| 2026-04-23 18:36 | 53.86330 | 9.86303 | 7273 ft | 255 kts | 91° |
| 2026-04-23 18:36 | 53.86107 | 9.89270 | 7267 ft | 255 kts | 91° |
| 2026-04-23 18:36 | 53.85885 | 9.92227 | 7174 ft | 255 kts | 91° |
| 2026-04-23 18:36 | 53.85667 | 9.95210 | 6850 ft | 255 kts | 91° |
| 2026-04-23 18:37 | 53.85451 | 9.98195 | 6524 ft | 253 kts | 91° |
| 2026-04-23 18:37 | 53.85238 | 10.01142 | 6202 ft | 252 kts | 90° |
| 2026-04-23 18:37 | 53.85028 | 10.04087 | 5869 ft | 252 kts | 91° |
| 2026-04-23 18:37 | 53.84818 | 10.06996 | 5558 ft | 250 kts | 91° |
| 2026-04-23 18:38 | 53.84617 | 10.09919 | 5221 ft | 252 kts | 91° |
| 2026-04-23 18:38 | 53.84477 | 10.12894 | 4955 ft | 253 kts | 85° |
| 2026-04-23 18:38 | 53.84474 | 10.15964 | 4687 ft | 259 kts | 83° |
| 2026-04-23 18:38 | 53.84494 | 10.18915 | 4362 ft | 246 kts | 83° |
| 2026-04-23 18:39 | 53.84521 | 10.21786 | 4040 ft | 243 kts | 83° |
| 2026-04-23 18:39 | 53.84560 | 10.24623 | 3947 ft | 246 kts | 83° |
| 2026-04-23 18:39 | 53.84617 | 10.27534 | 3958 ft | 244 kts | 82° |
| 2026-04-23 18:39 | 53.84586 | 10.30379 | 3948 ft | 241 kts | 95° |
| 2026-04-23 18:40 | 53.83887 | 10.32962 | 3908 ft | 249 kts | 131° |
| 2026-04-23 18:40 | 53.82474 | 10.34626 | 3922 ft | 251 kts | 163° |
| 2026-04-23 18:40 | 53.80776 | 10.34865 | 3937 ft | 246 kts | 197° |
| 2026-04-23 18:40 | 53.79310 | 10.33693 | 3834 ft | 223 kts | 229° |
| 2026-04-23 18:41 | 53.78462 | 10.31666 | 3452 ft | 207 kts | 250° |
| 2026-04-23 18:41 | 53.77795 | 10.29501 | 3042 ft | 209 kts | 245° |
| 2026-04-23 18:41 | 53.76997 | 10.27431 | 2943 ft | 213 kts | 240° |
| 2026-04-23 18:41 | 53.76112 | 10.25369 | 2939 ft | 220 kts | 238° |
| 2026-04-23 18:42 | 53.75167 | 10.23319 | 2942 ft | 222 kts | 237° |
| 2026-04-23 18:42 | 53.74226 | 10.21401 | 2914 ft | 202 kts | 236° |
| 2026-04-23 18:42 | 53.73360 | 10.19672 | 2901 ft | 182 kts | 237° |
| 2026-04-23 18:42 | 53.72556 | 10.18060 | 2778 ft | 178 kts | 237° |
| 2026-04-23 18:43 | 53.71772 | 10.16480 | 2532 ft | 173 kts | 237° |
| 2026-04-23 18:43 | 53.71015 | 10.14952 | 2302 ft | 169 kts | 237° |
| 2026-04-23 18:43 | 53.70268 | 10.13444 | 2072 ft | 166 kts | 236° |
| 2026-04-23 18:43 | 53.69538 | 10.11970 | 1850 ft | 162 kts | 235° |
| 2026-04-23 18:44 | 53.68809 | 10.10497 | 1734 ft | 168 kts | 236° |
| 2026-04-23 18:44 | 53.68064 | 10.08988 | 1489 ft | 163 kts | 234° |
| 2026-04-23 18:44 | 53.67365 | 10.07585 | 1250 ft | 149 kts | 233° |
| 2026-04-23 18:44 | 53.66726 | 10.06299 | 1017 ft | 136 kts | 234° |
| 2026-04-23 18:45 | 53.66150 | 10.05136 | 819 ft | 123 kts | 235° |
| 2026-04-23 18:45 | 53.65614 | 10.04047 | 685 ft | 121 kts | 233° |
| 2026-04-23 18:45 | 53.65080 | 10.02960 | 536 ft | 118 kts | 232° |
| 2026-04-23 18:45 | 53.64557 | 10.01905 | 377 ft | 118 kts | 233° |
| 2026-04-23 18:46 | 53.64029 | 10.00846 | 241 ft | 118 kts | 233° |
| 2026-04-23 18:46 | 53.63497 | 9.99785 | 64 ft | 118 kts | 234° |
| 2026-04-23 18:46 | 53.63014 | 9.98795 | 62 ft | 87 kts | 233° |
| 2026-04-23 18:46 | 53.62732 | 9.98212 | 62 ft | 50 kts | 230° |
| 2026-04-23 18:47 | 53.62587 | 9.97914 | 62 ft | 17 kts | 230° |
| 2026-04-23 18:47 | 53.62507 | 9.97792 | 62 ft | 14 kts | 197° |
| 2026-04-23 18:47 | 53.62439 | 9.97837 | 62 ft | 9 kts | 129° |
| 2026-04-23 18:47 | 53.62429 | 9.97903 | 62 ft | 2 kts | 86° |
| 2026-04-23 18:48 | 53.62430 | 9.97916 | 62 ft | 0 kts | 86° |
| 2026-04-23 18:48 | 53.62431 | 9.97938 | 62 ft | 5 kts | 85° |
| 2026-04-23 18:48 | 53.62452 | 9.98058 | 62 ft | 14 kts | 55° |
| 2026-04-23 18:49 | 53.62515 | 9.98197 | 62 ft | 20 kts | 51° |
| 2026-04-23 18:49 | 53.62604 | 9.98373 | 62 ft | 19 kts | 50° |
| 2026-04-23 18:49 | 53.62715 | 9.98601 | 62 ft | 30 kts | 49° |
| 2026-04-23 18:49 | 53.62830 | 9.98837 | 62 ft | 28 kts | 51° |
| 2026-04-23 18:50 | 53.62896 | 9.98972 | 62 ft | 23 kts | 50° |
| 2026-04-23 18:50 | 53.63051 | 9.99288 | 62 ft | 30 kts | 54° |
| 2026-04-23 18:50 | 53.63161 | 9.99540 | 62 ft | 21 kts | 54° |
| 2026-04-23 18:50 | 53.63192 | 9.99613 | 62 ft | 7 kts | 55° |
| 2026-04-23 18:51 | 53.63209 | 9.99655 | 62 ft | 0 kts | 55° |
| 2026-04-23 18:51 | 53.63211 | 9.99661 | 62 ft | 4 kts | 56° |
| 2026-04-23 18:51 | 53.63212 | 9.99752 | 62 ft | 9 kts | 122° |
| 2026-04-23 18:52 | 53.63159 | 9.99819 | 62 ft | 9 kts | 151° |
| 2026-04-23 18:52 | 53.63099 | 9.99872 | 62 ft | 10 kts | 153° |
| 2026-04-23 18:52 | 53.63030 | 9.99929 | 62 ft | 11 kts | 154° |
| 2026-04-23 18:52 | 53.63005 | 9.99950 | 62 ft | 1 kts | 153° |
| 2026-04-23 18:53 | 53.62976 | 9.99974 | 62 ft | 9 kts | 154° |
| 2026-04-23 18:53 | 53.62942 | 10.00016 | 62 ft | 4 kts | 84° |
| 2026-04-23 18:53 | 53.62936 | 10.00095 | 62 ft | 4 kts | 122° |
| 2026-04-23 18:53 | 53.62915 | 10.00153 | 62 ft | 6 kts | 121° |
| 2026-04-23 18:54 | 53.62894 | 10.00208 | 62 ft | 2 kts | 122° |
| 2026-04-23 18:54 | 53.62887 | 10.00229 | 62 ft | 0 kts | 121° |